PWSweather.com
Personal Weather Stations
Station Observations
IMAZOWIE6
WarszawaPL

WarszawaPL

Lat: 52.27957, Lon: 21.05489

Elevation: 100

Station Type: WS1080

http://stacjapogody.waw.pl/

High Low Average
Temperature 28.9°F-1.7°C 19.0°F-7.2°C 24.4°F-4.2°C
Dew Point -169.9°F-112.2°C -170.9°F-112.7°C -170.4°F-112.4°C
Winds 4.8 mph 7.7 kmh Calm Calm 2.0 mph N3.2 kmh N
Wind Gusts 11.6 mph18.7 kmh -- 6.0 mph9.7 kmh
Humidity - - -
Pressure 29.61 in1002.7 mb 28.85 in977.0 mb -
Precipitation 0.00 in0.0 mm - -
Hour Temp Dew Point Humidity Winds Wind Gusts Pressure Precip Precip Rate Daily Precip Total
12:01 AM 20.8°F-6.2°C -170.7°F-112.6°C - 1.4 mph N2.3 kmh N 8.2 mph13.2 kmh 29.61 in1002.7 mb 0.00 in0.0 mm 0.00 in0.0 mm 0.00 in0.0 mm
12:16 AM 20.8°F-6.2°C -170.7°F-112.6°C - 1.4 mph N2.3 kmh N 8.2 mph13.2 kmh 29.61 in1002.7 mb 0.00 in0.0 mm 0.00 in0.0 mm 0.00 in0.0 mm
12:31 AM 20.7°F-6.3°C -170.7°F-112.6°C - 0.6 mph N1.0 kmh N 4.0 mph6.4 kmh 29.59 in1002.0 mb 0.00 in0.0 mm 0.00 in0.0 mm 0.00 in0.0 mm
12:45 AM 20.7°F-6.3°C -170.7°F-112.6°C - 0.6 mph N1.0 kmh N 4.0 mph6.4 kmh 29.59 in1002.0 mb 0.00 in0.0 mm 0.00 in0.0 mm 0.00 in0.0 mm
01:01 AM 20.3°F-6.5°C -170.8°F-112.7°C - 1.4 mph N2.3 kmh N 4.8 mph7.7 kmh 29.57 in1001.4 mb 0.00 in0.0 mm 0.00 in0.0 mm 0.00 in0.0 mm
01:16 AM 20.1°F-6.6°C -170.8°F-112.7°C - 1.4 mph N2.3 kmh N 4.0 mph6.4 kmh 29.57 in1001.4 mb 0.00 in0.0 mm 0.00 in0.0 mm 0.00 in0.0 mm
01:31 AM 20.1°F-6.6°C -170.8°F-112.7°C - 2.0 mph N3.2 kmh N 6.2 mph10.0 kmh 29.56 in1001.0 mb 0.00 in0.0 mm 0.00 in0.0 mm 0.00 in0.0 mm
01:46 AM 19.8°F-6.8°C -170.8°F-112.7°C - 1.4 mph N2.3 kmh N 4.0 mph6.4 kmh 29.55 in1000.7 mb 0.00 in0.0 mm 0.00 in0.0 mm 0.00 in0.0 mm
02:01 AM 19.6°F-6.9°C -170.8°F-112.7°C - 2.0 mph N3.2 kmh N 5.4 mph8.7 kmh 29.53 in1000.0 mb 0.00 in0.0 mm 0.00 in0.0 mm 0.00 in0.0 mm
02:16 AM 19.6°F-6.9°C -170.8°F-112.7°C - 3.4 mph N5.5 kmh N 8.2 mph13.2 kmh 29.52 in999.7 mb 0.00 in0.0 mm 0.00 in0.0 mm 0.00 in0.0 mm
02:31 AM 19.6°F-6.9°C -170.8°F-112.7°C - 2.8 mph N4.5 kmh N 7.4 mph11.9 kmh 29.52 in999.7 mb 0.00 in0.0 mm 0.00 in0.0 mm 0.00 in0.0 mm
02:46 AM 19.4°F-7.0°C -170.9°F-112.7°C - 2.0 mph N3.2 kmh N 4.0 mph6.4 kmh 29.50 in999.0 mb 0.00 in0.0 mm 0.00 in0.0 mm 0.00 in0.0 mm
03:01 AM 19.4°F-7.0°C -170.9°F-112.7°C - 2.0 mph N3.2 kmh N 4.0 mph6.4 kmh 29.49 in998.6 mb 0.00 in0.0 mm 0.00 in0.0 mm 0.00 in0.0 mm
03:15 AM 19.4°F-7.0°C -170.9°F-112.7°C - 2.0 mph N3.2 kmh N 4.0 mph6.4 kmh 29.49 in998.6 mb 0.00 in0.0 mm 0.00 in0.0 mm 0.00 in0.0 mm
03:31 AM 19.0°F-7.2°C -170.9°F-112.7°C - 2.0 mph N3.2 kmh N 5.4 mph8.7 kmh 29.46 in997.6 mb 0.00 in0.0 mm 0.00 in0.0 mm 0.00 in0.0 mm
03:45 AM 19.0°F-7.2°C -170.9°F-112.7°C - 2.0 mph N3.2 kmh N 5.4 mph8.7 kmh 29.46 in997.6 mb 0.00 in0.0 mm 0.00 in0.0 mm 0.00 in0.0 mm
04:01 AM 19.2°F-7.1°C -170.9°F-112.7°C - 2.8 mph N4.5 kmh N 6.8 mph10.9 kmh 29.44 in997.0 mb 0.00 in0.0 mm 0.00 in0.0 mm 0.00 in0.0 mm
04:16 AM 19.2°F-7.1°C -170.9°F-112.7°C - 2.8 mph N4.5 kmh N 6.8 mph10.9 kmh 29.44 in997.0 mb 0.00 in0.0 mm 0.00 in0.0 mm 0.00 in0.0 mm
04:30 AM 19.2°F-7.1°C -170.9°F-112.7°C - 2.8 mph N4.5 kmh N 6.8 mph10.9 kmh 29.44 in997.0 mb 0.00 in0.0 mm 0.00 in0.0 mm 0.00 in0.0 mm
04:46 AM 19.2°F-7.1°C -170.9°F-112.7°C - 1.4 mph N2.3 kmh N 5.4 mph8.7 kmh 29.41 in995.9 mb 0.00 in0.0 mm 0.00 in0.0 mm 0.00 in0.0 mm
05:01 AM 19.4°F-7.0°C -170.9°F-112.7°C - 0.6 mph N1.0 kmh N 4.8 mph7.7 kmh 29.40 in995.6 mb 0.00 in0.0 mm 0.00 in0.0 mm 0.00 in0.0 mm
05:16 AM 19.4°F-7.0°C -170.9°F-112.7°C - 2.0 mph N3.2 kmh N 4.8 mph7.7 kmh 29.39 in995.3 mb 0.00 in0.0 mm 0.00 in0.0 mm 0.00 in0.0 mm
05:31 AM 19.4°F-7.0°C -170.9°F-112.7°C - 2.0 mph N3.2 kmh N 8.8 mph14.2 kmh 29.38 in994.9 mb 0.00 in0.0 mm 0.00 in0.0 mm 0.00 in0.0 mm
05:46 AM 19.6°F-6.9°C -170.8°F-112.7°C - 2.0 mph N3.2 kmh N 6.8 mph10.9 kmh 29.38 in994.9 mb 0.00 in0.0 mm 0.00 in0.0 mm 0.00 in0.0 mm
06:01 AM 19.6°F-6.9°C -170.8°F-112.7°C - 2.0 mph N3.2 kmh N 6.8 mph10.9 kmh 29.37 in994.6 mb 0.00 in0.0 mm 0.00 in0.0 mm 0.00 in0.0 mm
06:16 AM 19.8°F-6.8°C -170.8°F-112.7°C - 1.4 mph N2.3 kmh N 4.0 mph6.4 kmh 29.36 in994.2 mb 0.00 in0.0 mm 0.00 in0.0 mm 0.00 in0.0 mm
06:31 AM 19.9°F-6.7°C -170.8°F-112.7°C - 1.4 mph N2.3 kmh N 7.4 mph11.9 kmh 29.35 in993.9 mb 0.00 in0.0 mm 0.00 in0.0 mm 0.00 in0.0 mm
06:46 AM 19.8°F-6.8°C -170.8°F-112.7°C - 2.0 mph N3.2 kmh N 6.2 mph10.0 kmh 29.34 in993.6 mb 0.00 in0.0 mm 0.00 in0.0 mm 0.00 in0.0 mm
07:01 AM 19.9°F-6.7°C -170.8°F-112.7°C - 2.8 mph N4.5 kmh N 7.4 mph11.9 kmh 29.34 in993.6 mb 0.00 in0.0 mm 0.00 in0.0 mm 0.00 in0.0 mm
07:16 AM 20.1°F-6.6°C -170.8°F-112.7°C - 2.0 mph N3.2 kmh N 7.4 mph11.9 kmh 29.33 in993.2 mb 0.00 in0.0 mm 0.00 in0.0 mm 0.00 in0.0 mm
07:31 AM 20.1°F-6.6°C -170.8°F-112.7°C - 1.4 mph N2.3 kmh N 4.8 mph7.7 kmh 29.32 in992.9 mb 0.00 in0.0 mm 0.00 in0.0 mm 0.00 in0.0 mm
07:46 AM 20.3°F-6.5°C -170.8°F-112.7°C - 2.0 mph N3.2 kmh N 5.4 mph8.7 kmh 29.32 in992.9 mb 0.00 in0.0 mm 0.00 in0.0 mm 0.00 in0.0 mm
08:01 AM 20.5°F-6.4°C -170.8°F-112.7°C - 2.8 mph N4.5 kmh N 6.2 mph10.0 kmh 29.31 in992.6 mb 0.00 in0.0 mm 0.00 in0.0 mm 0.00 in0.0 mm
08:16 AM 21.0°F-6.1°C -170.7°F-112.6°C - 1.4 mph N2.3 kmh N 5.4 mph8.7 kmh 29.31 in992.6 mb 0.00 in0.0 mm 0.00 in0.0 mm 0.00 in0.0 mm
08:31 AM 21.6°F-5.8°C -170.6°F-112.6°C - 2.0 mph N3.2 kmh N 8.2 mph13.2 kmh 29.30 in992.2 mb 0.00 in0.0 mm 0.00 in0.0 mm 0.00 in0.0 mm
08:46 AM 22.1°F-5.5°C -170.6°F-112.6°C - 1.4 mph N2.3 kmh N 4.8 mph7.7 kmh 29.29 in991.9 mb 0.00 in0.0 mm 0.00 in0.0 mm 0.00 in0.0 mm
09:01 AM 22.5°F-5.3°C -170.6°F-112.6°C - 2.0 mph N3.2 kmh N 6.8 mph10.9 kmh 29.29 in991.9 mb 0.00 in0.0 mm 0.00 in0.0 mm 0.00 in0.0 mm
09:16 AM 23.0°F-5.0°C -170.5°F-112.5°C - 2.0 mph N3.2 kmh N 7.4 mph11.9 kmh 29.29 in991.9 mb 0.00 in0.0 mm 0.00 in0.0 mm 0.00 in0.0 mm
09:31 AM 23.5°F-4.7°C -170.4°F-112.4°C - 2.8 mph N4.5 kmh N 6.8 mph10.9 kmh 29.28 in991.5 mb 0.00 in0.0 mm 0.00 in0.0 mm 0.00 in0.0 mm
09:46 AM 23.0°F-5.0°C -170.5°F-112.5°C - 0.6 mph N1.0 kmh N 4.0 mph6.4 kmh 29.27 in991.2 mb 0.00 in0.0 mm 0.00 in0.0 mm 0.00 in0.0 mm
10:01 AM 23.9°F-4.5°C -170.4°F-112.4°C - 1.4 mph N2.3 kmh N 3.4 mph5.5 kmh 29.26 in990.9 mb 0.00 in0.0 mm 0.00 in0.0 mm 0.00 in0.0 mm
10:16 AM 24.3°F-4.3°C -170.4°F-112.4°C - 2.0 mph N3.2 kmh N 7.4 mph11.9 kmh 29.25 in990.5 mb 0.00 in0.0 mm 0.00 in0.0 mm 0.00 in0.0 mm
10:31 AM 24.6°F-4.1°C -170.3°F-112.4°C - 2.0 mph N3.2 kmh N 6.2 mph10.0 kmh 29.24 in990.2 mb 0.00 in0.0 mm 0.00 in0.0 mm 0.00 in0.0 mm
10:46 AM 25.0°F-3.9°C -170.3°F-112.4°C - 0.6 mph N1.0 kmh N 4.8 mph7.7 kmh 29.24 in990.2 mb 0.00 in0.0 mm 0.00 in0.0 mm 0.00 in0.0 mm
11:01 AM 25.5°F-3.6°C -170.2°F-112.3°C - 2.8 mph N4.5 kmh N 7.4 mph11.9 kmh 29.23 in989.8 mb 0.00 in0.0 mm 0.00 in0.0 mm 0.00 in0.0 mm
11:16 AM 25.9°F-3.4°C -170.2°F-112.3°C - 3.4 mph N5.5 kmh N 6.8 mph10.9 kmh 29.22 in989.5 mb 0.00 in0.0 mm 0.00 in0.0 mm 0.00 in0.0 mm
11:31 AM 26.2°F-3.2°C -170.2°F-112.3°C - 2.0 mph N3.2 kmh N 4.8 mph7.7 kmh 29.21 in989.2 mb 0.00 in0.0 mm 0.00 in0.0 mm 0.00 in0.0 mm
11:46 AM 26.4°F-3.1°C -170.2°F-112.3°C - 2.8 mph N4.5 kmh N 11.6 mph18.7 kmh 29.19 in988.5 mb 0.00 in0.0 mm 0.00 in0.0 mm 0.00 in0.0 mm
12:01 PM 27.0°F-2.8°C -170.1°F-112.3°C - 2.0 mph N3.2 kmh N 6.2 mph10.0 kmh 29.18 in988.1 mb 0.00 in0.0 mm 0.00 in0.0 mm 0.00 in0.0 mm
12:16 PM 27.0°F-2.8°C -170.1°F-112.3°C - 2.8 mph N4.5 kmh N 5.4 mph8.7 kmh 29.17 in987.8 mb 0.00 in0.0 mm 0.00 in0.0 mm 0.00 in0.0 mm
12:31 PM 27.3°F-2.6°C -170.1°F-112.3°C - 1.4 mph N2.3 kmh N 4.8 mph7.7 kmh 29.16 in987.5 mb 0.00 in0.0 mm 0.00 in0.0 mm 0.00 in0.0 mm
12:46 PM 27.5°F-2.5°C -170.1°F-112.3°C - 2.0 mph N3.2 kmh N 4.8 mph7.7 kmh 29.14 in986.8 mb 0.00 in0.0 mm 0.00 in0.0 mm 0.00 in0.0 mm
01:01 PM 27.9°F-2.3°C -170.0°F-112.2°C - 2.0 mph N3.2 kmh N 4.0 mph6.4 kmh 29.13 in986.5 mb 0.00 in0.0 mm 0.00 in0.0 mm 0.00 in0.0 mm
01:16 PM 28.2°F-2.1°C -170.0°F-112.2°C - 0.6 mph N1.0 kmh N 2.8 mph4.5 kmh 29.12 in986.1 mb 0.00 in0.0 mm 0.00 in0.0 mm 0.00 in0.0 mm
01:31 PM 28.6°F-1.9°C -169.9°F-112.2°C - 2.8 mph N4.5 kmh N 8.2 mph13.2 kmh 29.11 in985.8 mb 0.00 in0.0 mm 0.00 in0.0 mm 0.00 in0.0 mm
01:46 PM 28.8°F-1.8°C -169.9°F-112.2°C - 2.8 mph N4.5 kmh N 8.8 mph14.2 kmh 29.10 in985.4 mb 0.00 in0.0 mm 0.00 in0.0 mm 0.00 in0.0 mm
02:01 PM 28.9°F-1.7°C -169.9°F-112.2°C - 2.0 mph N3.2 kmh N 6.8 mph10.9 kmh 29.10 in985.4 mb 0.00 in0.0 mm 0.00 in0.0 mm 0.00 in0.0 mm
02:16 PM 28.8°F-1.8°C -169.9°F-112.2°C - 2.8 mph N4.5 kmh N 8.2 mph13.2 kmh 29.09 in985.1 mb 0.00 in0.0 mm 0.00 in0.0 mm 0.00 in0.0 mm
02:31 PM 28.6°F-1.9°C -169.9°F-112.2°C - 2.8 mph N4.5 kmh N 6.2 mph10.0 kmh 29.08 in984.8 mb 0.00 in0.0 mm 0.00 in0.0 mm 0.00 in0.0 mm
02:46 PM 28.8°F-1.8°C -169.9°F-112.2°C - 2.8 mph N4.5 kmh N 6.8 mph10.9 kmh 29.07 in984.4 mb 0.00 in0.0 mm 0.00 in0.0 mm 0.00 in0.0 mm
03:01 PM 28.8°F-1.8°C -169.9°F-112.2°C - 2.0 mph N3.2 kmh N 8.2 mph13.2 kmh 29.06 in984.1 mb 0.00 in0.0 mm 0.00 in0.0 mm 0.00 in0.0 mm
03:16 PM 28.8°F-1.8°C -169.9°F-112.2°C - 2.0 mph N3.2 kmh N 5.4 mph8.7 kmh 29.05 in983.7 mb 0.00 in0.0 mm 0.00 in0.0 mm 0.00 in0.0 mm
03:31 PM 28.6°F-1.9°C -169.9°F-112.2°C - 2.0 mph N3.2 kmh N 4.0 mph6.4 kmh 29.05 in983.7 mb 0.00 in0.0 mm 0.00 in0.0 mm 0.00 in0.0 mm
03:46 PM 27.9°F-2.3°C -170.0°F-112.2°C - 2.8 mph N4.5 kmh N 5.4 mph8.7 kmh 29.04 in983.4 mb 0.00 in0.0 mm 0.00 in0.0 mm 0.00 in0.0 mm
04:01 PM 28.2°F-2.1°C -170.0°F-112.2°C - Calm Calm 2.0 mph3.2 kmh 29.04 in983.4 mb 0.00 in0.0 mm 0.00 in0.0 mm 0.00 in0.0 mm
04:16 PM 28.9°F-1.7°C -169.9°F-112.2°C - 0.6 mph N1.0 kmh N 2.8 mph4.5 kmh 29.03 in983.1 mb 0.00 in0.0 mm 0.00 in0.0 mm 0.00 in0.0 mm
04:31 PM 28.9°F-1.7°C -169.9°F-112.2°C - 0.6 mph N1.0 kmh N 5.4 mph8.7 kmh 29.03 in983.1 mb 0.00 in0.0 mm 0.00 in0.0 mm 0.00 in0.0 mm
04:46 PM 28.4°F-2.0°C -170.0°F-112.2°C - 2.0 mph N3.2 kmh N 6.2 mph10.0 kmh 29.02 in982.7 mb 0.00 in0.0 mm 0.00 in0.0 mm 0.00 in0.0 mm
05:01 PM 27.7°F-2.4°C -170.0°F-112.2°C - 2.0 mph N3.2 kmh N 5.4 mph8.7 kmh 29.01 in982.4 mb 0.00 in0.0 mm 0.00 in0.0 mm 0.00 in0.0 mm
05:16 PM 27.3°F-2.6°C -170.1°F-112.3°C - 1.4 mph N2.3 kmh N 3.4 mph5.5 kmh 29.00 in982.1 mb 0.00 in0.0 mm 0.00 in0.0 mm 0.00 in0.0 mm
05:31 PM 27.1°F-2.7°C -170.1°F-112.3°C - 3.4 mph N5.5 kmh N 5.4 mph8.7 kmh 28.99 in981.7 mb 0.00 in0.0 mm 0.00 in0.0 mm 0.00 in0.0 mm
05:46 PM 27.1°F-2.7°C -170.1°F-112.3°C - 1.4 mph N2.3 kmh N 4.8 mph7.7 kmh 28.98 in981.4 mb 0.00 in0.0 mm 0.00 in0.0 mm 0.00 in0.0 mm
06:01 PM 27.1°F-2.7°C -170.1°F-112.3°C - 2.0 mph N3.2 kmh N 5.4 mph8.7 kmh 28.98 in981.4 mb 0.00 in0.0 mm 0.00 in0.0 mm 0.00 in0.0 mm
06:16 PM 27.3°F-2.6°C -170.1°F-112.3°C - 2.8 mph N4.5 kmh N 6.8 mph10.9 kmh 28.98 in981.4 mb 0.00 in0.0 mm 0.00 in0.0 mm 0.00 in0.0 mm
06:31 PM 27.3°F-2.6°C -170.1°F-112.3°C - 4.8 mph N7.7 kmh N 8.2 mph13.2 kmh 28.96 in980.7 mb 0.00 in0.0 mm 0.00 in0.0 mm 0.00 in0.0 mm
06:46 PM 27.9°F-2.3°C -170.0°F-112.2°C - 1.4 mph N2.3 kmh N 4.8 mph7.7 kmh 28.95 in980.4 mb 0.00 in0.0 mm 0.00 in0.0 mm 0.00 in0.0 mm
07:01 PM 28.0°F-2.2°C -170.0°F-112.2°C - 2.8 mph N4.5 kmh N 10.2 mph16.4 kmh 28.95 in980.4 mb 0.00 in0.0 mm 0.00 in0.0 mm 0.00 in0.0 mm
07:16 PM 27.7°F-2.4°C -170.0°F-112.2°C - 1.4 mph N2.3 kmh N 3.4 mph5.5 kmh 28.95 in980.4 mb 0.00 in0.0 mm 0.00 in0.0 mm 0.00 in0.0 mm
07:31 PM 27.5°F-2.5°C -170.1°F-112.3°C - 0.6 mph N1.0 kmh N 4.8 mph7.7 kmh 28.95 in980.4 mb 0.00 in0.0 mm 0.00 in0.0 mm 0.00 in0.0 mm
07:46 PM 27.3°F-2.6°C -170.1°F-112.3°C - 1.4 mph N2.3 kmh N 6.2 mph10.0 kmh 28.95 in980.4 mb 0.00 in0.0 mm 0.00 in0.0 mm 0.00 in0.0 mm
08:01 PM 27.3°F-2.6°C -170.1°F-112.3°C - 2.8 mph N4.5 kmh N 6.8 mph10.9 kmh 28.93 in979.7 mb 0.00 in0.0 mm 0.00 in0.0 mm 0.00 in0.0 mm
08:16 PM 27.5°F-2.5°C -170.1°F-112.3°C - 2.8 mph N4.5 kmh N 6.8 mph10.9 kmh 28.92 in979.3 mb 0.00 in0.0 mm 0.00 in0.0 mm 0.00 in0.0 mm
08:31 PM 27.5°F-2.5°C -170.1°F-112.3°C - 2.0 mph N3.2 kmh N 5.4 mph8.7 kmh 28.92 in979.3 mb 0.00 in0.0 mm 0.00 in0.0 mm 0.00 in0.0 mm
08:46 PM 27.7°F-2.4°C -170.0°F-112.2°C - 2.8 mph N4.5 kmh N 4.0 mph6.4 kmh 28.93 in979.7 mb 0.00 in0.0 mm 0.00 in0.0 mm 0.00 in0.0 mm
09:01 PM 27.7°F-2.4°C -170.0°F-112.2°C - 0.6 mph N1.0 kmh N 3.4 mph5.5 kmh 28.93 in979.7 mb 0.00 in0.0 mm 0.00 in0.0 mm 0.00 in0.0 mm
09:16 PM 27.7°F-2.4°C -170.0°F-112.2°C - 1.4 mph N2.3 kmh N 3.4 mph5.5 kmh 28.91 in979.0 mb 0.00 in0.0 mm 0.00 in0.0 mm 0.00 in0.0 mm
09:31 PM 27.7°F-2.4°C -170.0°F-112.2°C - Calm Calm 2.8 mph4.5 kmh 28.90 in978.7 mb 0.00 in0.0 mm 0.00 in0.0 mm 0.00 in0.0 mm
09:46 PM 27.3°F-2.6°C -170.1°F-112.3°C - 1.4 mph N2.3 kmh N 3.4 mph5.5 kmh 28.89 in978.3 mb 0.00 in0.0 mm 0.00 in0.0 mm 0.00 in0.0 mm
10:01 PM 27.3°F-2.6°C -170.1°F-112.3°C - Calm Calm -- 28.89 in978.3 mb 0.00 in0.0 mm 0.00 in0.0 mm 0.00 in0.0 mm
10:16 PM 27.3°F-2.6°C -170.1°F-112.3°C - 2.8 mph N4.5 kmh N 7.4 mph11.9 kmh 28.89 in978.3 mb 0.00 in0.0 mm 0.00 in0.0 mm 0.00 in0.0 mm
10:31 PM 27.1°F-2.7°C -170.1°F-112.3°C - 1.4 mph N2.3 kmh N 4.0 mph6.4 kmh 28.88 in978.0 mb 0.00 in0.0 mm 0.00 in0.0 mm 0.00 in0.0 mm
10:46 PM 27.3°F-2.6°C -170.1°F-112.3°C - 0.6 mph N1.0 kmh N 2.8 mph4.5 kmh 28.87 in977.7 mb 0.00 in0.0 mm 0.00 in0.0 mm 0.00 in0.0 mm
11:01 PM 27.5°F-2.5°C -170.1°F-112.3°C - Calm Calm 2.8 mph4.5 kmh 28.87 in977.7 mb 0.00 in0.0 mm 0.00 in0.0 mm 0.00 in0.0 mm
11:16 PM 27.3°F-2.6°C -170.1°F-112.3°C - Calm Calm 2.0 mph3.2 kmh 28.87 in977.7 mb 0.00 in0.0 mm 0.00 in0.0 mm 0.00 in0.0 mm
11:31 PM 27.3°F-2.6°C -170.1°F-112.3°C - 0.6 mph N1.0 kmh N 2.0 mph3.2 kmh 28.86 in977.3 mb 0.00 in0.0 mm 0.00 in0.0 mm 0.00 in0.0 mm
11:46 PM 27.3°F-2.6°C -170.1°F-112.3°C - 0.6 mph N1.0 kmh N 4.0 mph6.4 kmh 28.85 in977.0 mb 0.00 in0.0 mm 0.00 in0.0 mm 0.00 in0.0 mm